KPHF/PHF METAR and TAF weather

Enter ICAO airport designator
Station Type Date Time Source
KPHF METAR 2019/10/18 10:54 UTC NOAA

KPHF 181054Z 34005KT 10SM CLR 08/01 A2995 RMK AO2 SLP142 T00780011


Station Type Date Time Source
KPHF Decoded METAR 2019/10/18 10:54 UTC NOAA

WILLIAMSBURG INTERNATIONAL AIRPORT , VA, United States (KPHF) 37-08N 76-30W 12M
Oct 18, 2019 - 06:54 AM EDT / 2019.10.18 1054 UTC
Wind: from the NNW (340 degrees) at 6 MPH (5 KT):0
Visibility: 10 mile(s):0
Sky conditions: clear
Temperature: 46.0 F (7.8 C)
Dew Point: 34.0 F (1.1 C)
Relative Humidity: 62%
Pressure (altimeter): 29.95 in. Hg (1014 hPa)
ob: KPHF 181054Z 34005KT 10SM CLR 08/01 A2995 RMK AO2 SLP142 T00780011
cycle: 11

Station Type Date Time Source
KPHF TAF 2019/10/18 06:27 UTC NOAA

TAF KPHF 180525Z 1806/1906 31005KT P6SM SKC
FM181800 32010KT P6SM SKC
FM190000 VRB03KT P6SM SKC

Example: see airport list